createdAt,value
2022-10-07T00:01:09.662Z,1.53
2022-10-07T00:03:37.440Z,1.50
2022-10-07T00:06:07.618Z,1.40
2022-10-07T00:08:37.320Z,1.30
2022-10-07T00:11:08.971Z,1.33
2022-10-07T00:13:38.841Z,1.87
2022-10-07T00:16:10.070Z,1.37
2022-10-07T00:18:39.083Z,1.30
2022-10-07T00:21:09.318Z,1.07
2022-10-07T00:23:37.513Z,1.20
2022-10-07T00:26:08.461Z,1.30
2022-10-07T00:28:36.612Z,1.50
2022-10-07T00:31:06.599Z,1.23
2022-10-07T00:33:36.238Z,1.70
2022-10-07T00:36:07.973Z,1.53
2022-10-07T00:38:35.731Z,1.47
2022-10-07T00:41:03.441Z,1.30
2022-10-07T00:43:34.178Z,1.57
2022-10-07T00:46:08.929Z,1.43
2022-10-07T00:48:39.218Z,1.60
2022-10-07T00:51:09.360Z,1.70
2022-10-07T00:53:40.163Z,1.43
2022-10-07T00:56:08.903Z,1.60
2022-10-07T00:58:42.538Z,1.37
2022-10-07T01:01:12.091Z,1.40
2022-10-07T01:03:40.402Z,1.40
2022-10-07T01:06:08.164Z,1.40
2022-10-07T01:08:35.973Z,1.50
2022-10-07T01:11:17.309Z,1.50
2022-10-07T01:13:59.010Z,1.50
2022-10-07T01:16:35.790Z,1.67
2022-10-07T01:19:14.503Z,1.40
2022-10-07T01:21:54.781Z,1.43
2022-10-07T01:24:35.193Z,1.60
2022-10-07T01:27:07.104Z,1.47
2022-10-07T01:29:39.302Z,1.30
2022-10-07T01:32:14.227Z,1.63
2022-10-07T01:34:44.058Z,1.33
2022-10-07T01:37:16.503Z,1.27
2022-10-07T01:39:49.496Z,1.13
2022-10-07T01:42:20.665Z,1.43
2022-10-07T01:44:53.315Z,1.50
2022-10-07T01:47:21.193Z,1.17
2022-10-07T01:49:49.104Z,1.40
2022-10-07T01:52:33.769Z,1.50
2022-10-07T01:55:28.535Z,1.60
2022-10-07T01:58:09.419Z,1.37
2022-10-07T02:00:43.697Z,1.67
2022-10-07T02:03:28.747Z,1.53
2022-10-07T02:06:07.457Z,1.33
2022-10-07T02:08:40.578Z,1.40
2022-10-07T02:11:17.284Z,1.53
2022-10-07T02:13:55.934Z,1.60
2022-10-07T02:16:33.293Z,1.10
2022-10-07T02:19:05.543Z,1.43
2022-10-07T02:21:36.966Z,1.93
2022-10-07T02:24:06.253Z,1.67
2022-10-07T02:26:35.537Z,1.17
2022-10-07T02:29:08.134Z,1.60
2022-10-07T02:31:38.457Z,1.83
2022-10-07T02:34:09.582Z,1.20
2022-10-07T02:36:42.447Z,1.10
2022-10-07T02:39:10.620Z,1.60
2022-10-07T02:41:45.687Z,1.27
2022-10-07T02:44:25.783Z,2.13
2022-10-07T02:46:57.204Z,1.40
2022-10-07T02:49:27.566Z,1.37
2022-10-07T02:52:00.316Z,1.40
2022-10-07T02:54:34.695Z,1.50
2022-10-07T02:57:05.227Z,1.33
2022-10-07T02:59:35.269Z,1.40
2022-10-07T03:02:06.313Z,1.37
2022-10-07T03:04:34.031Z,1.40
2022-10-07T03:07:02.009Z,1.27
2022-10-07T03:09:30.653Z,1.60
2022-10-07T03:11:58.357Z,1.80
2022-10-07T03:14:28.169Z,1.53
2022-10-07T03:16:57.275Z,1.47
2022-10-07T03:19:24.932Z,1.40
2022-10-07T03:21:53.997Z,1.33
2022-10-07T03:24:21.760Z,1.60
2022-10-07T03:26:50.057Z,1.33
2022-10-07T03:29:18.638Z,0.90
2022-10-07T03:31:46.731Z,1.37
2022-10-07T03:34:15.854Z,1.73
2022-10-07T03:36:43.590Z,1.77
2022-10-07T03:39:11.290Z,1.70
2022-10-07T03:41:39.033Z,1.57
2022-10-07T03:44:06.812Z,1.70
2022-10-07T03:46:34.705Z,1.37
2022-10-07T03:49:03.315Z,1.40
2022-10-07T03:51:32.376Z,1.47
2022-10-07T03:54:00.509Z,1.70
2022-10-07T03:56:28.158Z,1.27
2022-10-07T03:58:55.874Z,1.57
2022-10-07T04:01:23.879Z,1.53
2022-10-07T04:03:51.675Z,1.40
2022-10-07T04:06:19.515Z,1.40
2022-10-07T04:08:52.669Z,1.43
2022-10-07T04:11:20.580Z,1.33
2022-10-07T04:13:48.601Z,1.60
2022-10-07T04:16:16.446Z,1.80
2022-10-07T04:18:44.227Z,1.70
2022-10-07T04:21:12.343Z,2.30
2022-10-07T04:23:41.645Z,1.63
2022-10-07T04:26:12.116Z,2.00
2022-10-07T04:28:40.542Z,1.90
2022-10-07T04:31:10.166Z,1.67
2022-10-07T04:33:41.106Z,1.63
2022-10-07T04:36:10.714Z,2.00
2022-10-07T04:38:38.410Z,1.80
2022-10-07T04:41:08.316Z,1.80
2022-10-07T04:43:37.480Z,1.57
2022-10-07T04:46:07.501Z,1.87
2022-10-07T04:48:35.826Z,1.87
2022-10-07T04:51:04.009Z,1.60
2022-10-07T04:53:32.294Z,1.87
2022-10-07T04:56:00.616Z,1.57
2022-10-07T04:58:29.201Z,1.33
2022-10-07T05:00:59.873Z,1.67
2022-10-07T05:03:30.143Z,1.50
2022-10-07T05:06:05.961Z,1.50
2022-10-07T05:08:34.655Z,1.73
2022-10-07T05:11:03.537Z,1.30
2022-10-07T05:13:31.610Z,1.43
2022-10-07T05:16:03.309Z,2.03
2022-10-07T05:18:33.338Z,2.20
2022-10-07T05:21:05.898Z,1.67
2022-10-07T05:23:35.811Z,1.50
2022-10-07T05:26:07.940Z,1.67
2022-10-07T05:28:36.213Z,1.73
2022-10-07T05:31:07.685Z,1.60
2022-10-07T05:33:36.208Z,1.67
2022-10-07T05:36:04.482Z,1.30
2022-10-07T05:38:32.809Z,1.50
2022-10-07T05:41:02.067Z,1.60
2022-10-07T05:43:31.846Z,1.40
2022-10-07T05:46:01.681Z,1.63
2022-10-07T05:48:38.021Z,1.40
2022-10-07T05:51:08.070Z,1.30
2022-10-07T05:53:36.236Z,1.30
2022-10-07T05:56:07.241Z,1.37
2022-10-07T05:58:36.058Z,1.60
2022-10-07T06:01:11.415Z,1.50
2022-10-07T06:03:42.970Z,1.23
2022-10-07T06:06:10.956Z,1.60
2022-10-07T06:08:38.787Z,2.07
2022-10-07T06:11:24.772Z,1.60
2022-10-07T06:13:53.841Z,1.30
2022-10-07T06:16:22.376Z,1.83
2022-10-07T06:18:52.563Z,1.70
2022-10-07T06:21:21.017Z,2.17
2022-10-07T06:23:52.321Z,1.80
2022-10-07T06:26:21.250Z,1.17
2022-10-07T06:28:49.744Z,1.53
2022-10-07T06:31:22.284Z,1.57
2022-10-07T06:33:51.506Z,1.63
2022-10-07T06:36:20.025Z,1.60
2022-10-07T06:38:49.359Z,1.50
2022-10-07T06:41:17.128Z,1.43
2022-10-07T06:43:45.731Z,1.50
2022-10-07T06:46:16.454Z,1.80
2022-10-07T06:48:46.658Z,1.50
2022-10-07T06:51:17.282Z,2.00
2022-10-07T06:53:45.349Z,1.70
2022-10-07T06:56:14.488Z,1.77
2022-10-07T06:58:43.152Z,1.73
2022-10-07T07:01:12.058Z,1.70
2022-10-07T07:03:40.397Z,1.80
2022-10-07T07:06:09.092Z,2.10
2022-10-07T07:08:41.009Z,1.60
2022-10-07T07:11:25.455Z,1.70
2022-10-07T07:13:53.251Z,1.57
2022-10-07T07:16:24.263Z,1.60
2022-10-07T07:18:53.663Z,1.70
2022-10-07T07:21:22.345Z,1.90
2022-10-07T07:23:52.110Z,1.60
2022-10-07T07:26:20.284Z,1.63
2022-10-07T07:28:52.481Z,1.43
2022-10-07T07:31:20.580Z,1.27
2022-10-07T07:33:52.520Z,1.30
2022-10-07T07:36:22.987Z,1.80
2022-10-07T07:38:53.713Z,1.97
2022-10-07T07:41:24.624Z,1.57
2022-10-07T07:43:56.322Z,1.60
2022-10-07T07:46:26.942Z,1.90
2022-10-07T07:48:55.105Z,2.20
2022-10-07T07:51:23.512Z,1.70
2022-10-07T07:53:52.551Z,1.60
2022-10-07T07:56:21.051Z,1.83
2022-10-07T07:58:48.761Z,1.80
2022-10-07T08:01:19.600Z,1.57
2022-10-07T08:03:48.834Z,1.80
2022-10-07T08:06:19.430Z,1.30
2022-10-07T08:08:47.534Z,1.60
2022-10-07T08:11:18.708Z,1.40
2022-10-07T08:13:47.354Z,2.00
2022-10-07T08:16:17.247Z,1.80
2022-10-07T08:18:47.644Z,1.80
2022-10-07T08:21:18.134Z,1.70
2022-10-07T08:23:47.943Z,1.53
2022-10-07T08:26:17.146Z,1.80
2022-10-07T08:28:45.028Z,1.67
2022-10-07T08:31:15.193Z,1.40
2022-10-07T08:33:45.019Z,1.63
2022-10-07T08:36:14.144Z,1.80
2022-10-07T08:38:42.323Z,1.73
2022-10-07T08:41:37.222Z,1.63
2022-10-07T08:44:18.530Z,1.37
2022-10-07T08:46:57.618Z,1.60
2022-10-07T08:49:33.780Z,2.03
2022-10-07T08:52:06.774Z,1.40
2022-10-07T08:54:34.839Z,1.83
2022-10-07T08:57:13.424Z,1.30
2022-10-07T08:59:47.710Z,1.40
2022-10-07T09:02:25.683Z,1.20
2022-10-07T09:05:01.544Z,1.53
2022-10-07T09:07:34.937Z,1.50
2022-10-07T09:10:16.493Z,1.53
2022-10-07T09:12:50.258Z,1.80
2022-10-07T09:15:21.851Z,1.40
2022-10-07T09:17:54.820Z,1.43
2022-10-07T09:20:28.114Z,1.63
2022-10-07T09:22:58.608Z,1.60
2022-10-07T09:25:27.817Z,1.60
2022-10-07T09:27:57.723Z,1.80
2022-10-07T09:30:28.088Z,1.60
2022-10-07T09:32:56.661Z,1.73
2022-10-07T09:35:26.280Z,1.60
2022-10-07T09:37:59.742Z,2.03
2022-10-07T09:40:36.842Z,1.53
2022-10-07T09:43:14.006Z,1.53
2022-10-07T09:45:46.082Z,1.50
2022-10-07T09:48:22.069Z,1.70
2022-10-07T09:50:50.543Z,1.50
2022-10-07T09:53:21.147Z,1.23
2022-10-07T09:55:50.342Z,1.60
2022-10-07T09:58:21.943Z,1.70
2022-10-07T10:00:51.902Z,1.50
2022-10-07T10:03:20.843Z,1.53
2022-10-07T10:05:57.470Z,1.40
2022-10-07T10:08:28.359Z,1.53
2022-10-07T10:10:58.073Z,1.50
2022-10-07T10:13:33.154Z,1.30
2022-10-07T10:16:02.196Z,1.47
2022-10-07T10:18:36.232Z,1.20
2022-10-07T10:21:19.874Z,1.13
2022-10-07T10:23:48.931Z,1.40
2022-10-07T10:26:39.103Z,1.40
2022-10-07T10:29:28.406Z,1.30
2022-10-07T10:32:15.995Z,1.20
2022-10-07T10:34:51.544Z,1.17
2022-10-07T10:37:21.668Z,1.50
2022-10-07T10:40:03.096Z,1.50
2022-10-07T10:42:44.390Z,1.40
2022-10-07T10:45:35.902Z,1.30
2022-10-07T10:48:19.967Z,1.50
2022-10-07T10:50:56.825Z,1.20
2022-10-07T10:53:35.771Z,1.50
2022-10-07T10:56:14.298Z,1.40
2022-10-07T10:58:58.418Z,1.47
2022-10-07T11:01:33.816Z,1.50
2022-10-07T11:04:18.188Z,1.80
2022-10-07T11:06:51.123Z,1.33
2022-10-07T11:09:34.051Z,1.30
2022-10-07T11:12:04.959Z,1.37
2022-10-07T11:14:33.982Z,1.50
2022-10-07T11:17:06.722Z,1.50
2022-10-07T11:19:39.564Z,1.40
2022-10-07T11:22:14.535Z,1.40
2022-10-07T11:24:46.428Z,1.23
2022-10-07T11:27:19.836Z,1.30
2022-10-07T11:29:52.571Z,1.40
2022-10-07T11:32:27.677Z,1.63
2022-10-07T11:35:00.485Z,1.70
2022-10-07T11:37:32.518Z,1.50
2022-10-07T11:40:00.354Z,1.70
2022-10-07T11:42:29.896Z,1.40
2022-10-07T11:45:03.285Z,1.63
2022-10-07T11:47:37.670Z,1.37
2022-10-07T11:50:10.005Z,1.43
2022-10-07T11:52:43.318Z,1.27
2022-10-07T11:55:20.846Z,1.63
2022-10-07T11:57:54.637Z,1.20
2022-10-07T12:00:28.202Z,1.03
2022-10-07T12:02:57.639Z,1.17
2022-10-07T12:05:58.604Z,1.40
2022-10-07T12:08:30.708Z,1.50
2022-10-07T12:11:47.935Z,1.30
2022-10-07T12:14:33.486Z,1.40
2022-10-07T12:17:19.002Z,1.20
2022-10-07T12:19:48.062Z,1.40
2022-10-07T12:22:18.811Z,1.10
2022-10-07T12:25:11.152Z,1.53
2022-10-07T12:27:47.248Z,1.10
2022-10-07T12:30:37.759Z,1.30
2022-10-07T12:33:15.971Z,1.17
2022-10-07T12:35:51.463Z,1.47
2022-10-07T12:38:24.737Z,1.27
2022-10-07T12:41:12.794Z,1.17
2022-10-07T12:43:49.761Z,1.40
2022-10-07T12:46:21.644Z,1.43
2022-10-07T12:48:56.555Z,1.20
2022-10-07T12:51:29.286Z,1.27
2022-10-07T12:53:59.720Z,1.13
2022-10-07T12:56:29.797Z,1.23
2022-10-07T12:59:32.387Z,1.70
2022-10-07T13:02:31.357Z,1.37
2022-10-07T13:05:47.752Z,1.50
2022-10-07T13:08:58.330Z,1.27
2022-10-07T13:11:53.914Z,1.63
2022-10-07T13:14:39.808Z,1.50
2022-10-07T13:17:42.761Z,1.10
2022-10-07T13:20:27.164Z,1.10
2022-10-07T13:23:00.289Z,1.10
2022-10-07T13:25:31.397Z,0.77
2022-10-07T13:28:03.423Z,1.27
2022-10-07T13:30:50.598Z,1.10
2022-10-07T13:33:30.854Z,1.33
2022-10-07T13:36:24.495Z,1.30
2022-10-07T13:39:12.004Z,1.00
2022-10-07T13:41:50.744Z,1.07
2022-10-07T13:44:29.381Z,1.20
2022-10-07T13:47:03.137Z,1.13
2022-10-07T13:49:43.506Z,1.10
2022-10-07T13:52:22.070Z,1.20
2022-10-07T13:54:53.801Z,1.20
2022-10-07T13:57:25.868Z,1.20
2022-10-07T13:59:55.971Z,0.97
2022-10-07T14:02:24.294Z,0.93
2022-10-07T14:05:00.366Z,1.33
2022-10-07T14:07:39.874Z,1.40
2022-10-07T14:10:13.639Z,1.47
2022-10-07T14:12:51.110Z,1.00
2022-10-07T14:15:32.502Z,0.93
2022-10-07T14:18:13.307Z,1.00
2022-10-07T14:20:53.494Z,1.07
2022-10-07T14:23:31.153Z,1.20
2022-10-07T14:26:09.863Z,1.13
2022-10-07T14:28:43.457Z,1.30
2022-10-07T14:31:50.494Z,1.03
2022-10-07T14:34:41.039Z,1.10
2022-10-07T14:37:31.693Z,1.00
2022-10-07T14:40:01.084Z,1.20
2022-10-07T14:42:42.109Z,0.80
2022-10-07T14:45:34.177Z,0.83
2022-10-07T14:48:04.076Z,0.90
2022-10-07T14:50:32.682Z,0.80
2022-10-07T14:53:02.446Z,0.77
2022-10-07T14:55:30.462Z,1.00
2022-10-07T14:58:06.676Z,1.00
2022-10-07T15:00:43.037Z,0.97
2022-10-07T15:03:22.436Z,1.07
2022-10-07T15:05:53.335Z,0.83
2022-10-07T15:08:22.488Z,0.80
2022-10-07T15:10:52.550Z,1.00
2022-10-07T15:13:23.460Z,1.10
2022-10-07T15:15:52.714Z,1.10
2022-10-07T15:18:24.121Z,0.90
2022-10-07T15:21:02.412Z,1.00
2022-10-07T15:23:34.024Z,1.10
2022-10-07T15:26:02.772Z,1.17
2022-10-07T15:28:34.550Z,1.03
2022-10-07T15:31:04.295Z,1.00
2022-10-07T15:33:34.022Z,1.10
2022-10-07T15:36:02.964Z,1.20
2022-10-07T15:38:33.090Z,0.93
2022-10-07T15:41:03.052Z,0.87
2022-10-07T15:43:34.647Z,0.97
2022-10-07T15:46:03.094Z,0.77
2022-10-07T15:48:33.901Z,1.10
2022-10-07T15:51:01.614Z,1.10
2022-10-07T15:53:29.311Z,1.00
2022-10-07T15:55:58.475Z,1.37
2022-10-07T15:58:30.770Z,1.03
2022-10-07T16:01:00.521Z,1.07
2022-10-07T16:03:28.254Z,1.37
2022-10-07T16:05:58.366Z,1.53
2022-10-07T16:08:26.432Z,1.20
2022-10-07T16:10:54.341Z,1.20
2022-10-07T16:13:23.182Z,1.20
2022-10-07T16:15:58.757Z,1.77
2022-10-07T16:18:26.638Z,1.20
2022-10-07T16:20:54.373Z,1.20
2022-10-07T16:23:23.422Z,1.20
2022-10-07T16:25:51.147Z,1.00
2022-10-07T16:28:36.622Z,0.97
2022-10-07T16:31:05.727Z,1.10
2022-10-07T16:33:33.562Z,1.13
2022-10-07T16:36:01.255Z,1.10
2022-10-07T16:38:36.447Z,1.47
2022-10-07T16:41:04.446Z,1.20
2022-10-07T16:43:34.431Z,1.00
2022-10-07T16:46:03.310Z,1.03
2022-10-07T16:48:31.372Z,1.10
2022-10-07T16:51:03.785Z,0.90
2022-10-07T16:53:34.641Z,1.27
2022-10-07T16:56:04.660Z,0.80
2022-10-07T16:58:33.182Z,1.00
2022-10-07T17:01:07.831Z,0.83
2022-10-07T17:03:40.998Z,0.80
2022-10-07T17:06:21.505Z,1.30
2022-10-07T17:09:00.078Z,1.43
2022-10-07T17:11:32.972Z,0.90
2022-10-07T17:14:04.429Z,0.90
2022-10-07T17:16:39.259Z,1.20
2022-10-07T17:19:13.659Z,0.97
2022-10-07T17:21:48.232Z,1.13
2022-10-07T17:24:24.346Z,0.70
2022-10-07T17:26:54.158Z,1.00
2022-10-07T17:29:27.078Z,0.90
2022-10-07T17:31:58.516Z,1.07
2022-10-07T17:34:34.573Z,1.10
2022-10-07T17:37:02.819Z,1.13
2022-10-07T17:39:41.581Z,1.00
2022-10-07T17:42:12.891Z,1.10
2022-10-07T17:44:40.697Z,1.10
2022-10-07T17:47:22.579Z,1.17
2022-10-07T17:50:01.160Z,1.43
2022-10-07T17:52:34.000Z,0.97
2022-10-07T17:55:04.629Z,1.10
2022-10-07T17:57:32.714Z,1.30
2022-10-07T18:00:05.498Z,1.20
2022-10-07T18:02:35.091Z,1.30
2022-10-07T18:05:02.901Z,1.20
2022-10-07T18:07:33.417Z,1.00
2022-10-07T18:10:01.655Z,1.13
2022-10-07T18:12:54.813Z,1.20
2022-10-07T18:15:23.231Z,1.40
2022-10-07T18:18:00.495Z,1.30
2022-10-07T18:20:41.592Z,1.03
2022-10-07T18:23:11.865Z,1.20
2022-10-07T18:25:43.383Z,1.13
2022-10-07T18:28:13.218Z,1.10
2022-10-07T18:30:45.192Z,0.87
2022-10-07T18:33:13.076Z,1.30
2022-10-07T18:35:43.113Z,1.13
2022-10-07T18:38:13.326Z,1.40
2022-10-07T18:40:41.020Z,1.10
2022-10-07T18:43:12.315Z,1.57
2022-10-07T18:45:44.543Z,1.20
2022-10-07T18:48:15.208Z,1.00
2022-10-07T18:50:52.904Z,1.20
2022-10-07T18:53:23.704Z,1.13
2022-10-07T18:55:54.358Z,0.90
2022-10-07T18:58:23.103Z,1.13
2022-10-07T19:00:55.387Z,0.80
2022-10-07T19:03:24.318Z,1.10
2022-10-07T19:05:51.981Z,0.83
2022-10-07T19:08:23.098Z,1.27
2022-10-07T19:10:52.911Z,1.20
2022-10-07T19:13:37.535Z,1.10
2022-10-07T19:16:15.110Z,1.40
2022-10-07T19:18:43.729Z,1.17
2022-10-07T19:21:15.210Z,1.17
2022-10-07T19:23:43.630Z,1.17
2022-10-07T19:26:18.991Z,1.10
2022-10-07T19:28:52.687Z,1.10
2022-10-07T19:31:30.095Z,1.47
2022-10-07T19:34:04.024Z,1.00
2022-10-07T19:36:40.381Z,1.00
2022-10-07T19:39:14.948Z,1.00
2022-10-07T19:41:44.053Z,1.10
2022-10-07T19:44:17.145Z,1.20
2022-10-07T19:46:47.042Z,1.33
2022-10-07T19:49:14.782Z,1.10
2022-10-07T19:51:44.766Z,1.43
2022-10-07T19:54:13.866Z,1.07
2022-10-07T19:56:45.078Z,0.93
2022-10-07T19:59:15.107Z,1.13
2022-10-07T20:01:44.182Z,1.17
2022-10-07T20:04:15.786Z,0.90
2022-10-07T20:06:44.414Z,0.87
2022-10-07T20:09:15.742Z,1.40
2022-10-07T20:11:44.262Z,1.00
2022-10-07T20:14:15.139Z,1.17
2022-10-07T20:16:53.241Z,1.07
2022-10-07T20:19:23.563Z,1.03
2022-10-07T20:21:53.027Z,1.20
2022-10-07T20:24:23.895Z,1.03
2022-10-07T20:26:54.769Z,0.93
2022-10-07T20:29:25.316Z,1.40
2022-10-07T20:31:54.858Z,0.87
2022-10-07T20:34:33.332Z,1.20
2022-10-07T20:37:05.295Z,1.10
2022-10-07T20:39:51.431Z,1.10
2022-10-07T20:42:25.530Z,1.07
2022-10-07T20:45:03.701Z,1.10
2022-10-07T20:47:43.460Z,1.10
2022-10-07T20:50:14.702Z,1.23
2022-10-07T20:52:45.340Z,1.00
2022-10-07T20:55:14.279Z,1.00
2022-10-07T20:57:43.138Z,1.10
2022-10-07T21:00:20.696Z,1.30
2022-10-07T21:02:48.763Z,1.20
2022-10-07T21:05:23.577Z,1.00
2022-10-07T21:07:54.890Z,1.20
2022-10-07T21:10:24.103Z,0.93
2022-10-07T21:12:55.371Z,0.80
2022-10-07T21:15:23.186Z,1.00
2022-10-07T21:17:54.985Z,1.40
2022-10-07T21:20:24.967Z,1.27
2022-10-07T21:22:56.905Z,1.20
2022-10-07T21:25:24.816Z,1.10
2022-10-07T21:27:54.040Z,1.00
2022-10-07T21:30:23.508Z,1.40
2022-10-07T21:32:53.292Z,1.20
2022-10-07T21:35:24.736Z,1.40
2022-10-07T21:37:53.792Z,1.03
2022-10-07T21:40:22.305Z,1.00
2022-10-07T21:42:53.208Z,1.20
2022-10-07T21:45:21.068Z,1.27
2022-10-07T21:47:49.484Z,1.03
2022-10-07T21:50:17.293Z,1.10
2022-10-07T21:52:50.132Z,1.40
2022-10-07T21:55:23.269Z,1.20
2022-10-07T21:57:54.318Z,1.00
2022-10-07T22:00:23.639Z,1.50
2022-10-07T22:02:57.421Z,1.27
2022-10-07T22:05:25.300Z,1.10
2022-10-07T22:08:12.850Z,1.70
2022-10-07T22:10:51.544Z,1.30
2022-10-07T22:13:23.661Z,1.40
2022-10-07T22:15:54.253Z,1.20
2022-10-07T22:18:25.191Z,1.60
2022-10-07T22:20:53.034Z,1.20
2022-10-07T22:23:22.511Z,1.23
2022-10-07T22:25:52.626Z,1.40
2022-10-07T22:28:20.419Z,1.00
2022-10-07T22:30:48.733Z,1.07
2022-10-07T22:33:16.483Z,1.00
2022-10-07T22:35:43.178Z,1.03
2022-10-07T22:38:11.187Z,0.57
2022-10-07T22:40:40.281Z,0.70
2022-10-07T22:43:08.643Z,0.50
2022-10-07T22:45:36.933Z,0.70
2022-10-07T22:48:04.768Z,0.73
2022-10-07T22:50:32.774Z,0.80
2022-10-07T22:53:00.485Z,0.53
2022-10-07T22:55:28.427Z,0.87
2022-10-07T22:58:01.684Z,0.87
2022-10-07T23:00:29.565Z,0.73
2022-10-07T23:02:57.378Z,0.60
2022-10-07T23:05:25.169Z,0.60
2022-10-07T23:07:52.954Z,0.80
2022-10-07T23:10:20.713Z,0.73
2022-10-07T23:12:48.855Z,0.63
2022-10-07T23:15:19.641Z,0.60
2022-10-07T23:17:47.515Z,0.70
2022-10-07T23:20:15.413Z,0.70
2022-10-07T23:22:45.329Z,0.77
2022-10-07T23:25:13.221Z,0.70
2022-10-07T23:27:41.017Z,0.70
2022-10-07T23:30:10.530Z,0.70
2022-10-07T23:32:39.729Z,0.50
2022-10-07T23:35:08.071Z,0.50
2022-10-07T23:37:35.790Z,0.50
2022-10-07T23:40:03.511Z,0.80
2022-10-07T23:42:31.510Z,0.70
2022-10-07T23:45:03.258Z,0.87
2022-10-07T23:47:30.942Z,0.80
2022-10-07T23:50:00.355Z,0.77
2022-10-07T23:52:28.083Z,0.60
2022-10-07T23:54:55.803Z,0.53
2022-10-07T23:57:23.550Z,0.70
2022-10-07T23:59:51.270Z,1.10
